sensor_id;sensor_type;location;lat;lon;timestamp;P1;durP1;ratioP1;P2;durP2;ratioP2
46653;SDS011;38960;51.074;17.004;2023-08-06T14:03:29;16.52;;;15.52;;
46653;SDS011;38960;51.074;17.004;2023-08-06T14:05:55;16.92;;;15.82;;
46653;SDS011;38960;51.074;17.004;2023-08-06T14:08:22;17.23;;;16.23;;
46653;SDS011;38960;51.074;17.004;2023-08-06T14:10:49;17.83;;;16.75;;
46653;SDS011;38960;51.074;17.004;2023-08-06T14:13:15;17.55;;;16.35;;
46653;SDS011;38960;51.074;17.004;2023-08-06T14:15:42;16.70;;;15.70;;
46653;SDS011;38960;51.074;17.004;2023-08-06T14:18:12;16.70;;;15.70;;
46653;SDS011;38960;51.074;17.004;2023-08-06T14:20:39;18.10;;;16.88;;
46653;SDS011;38960;51.074;17.004;2023-08-06T14:23:06;18.45;;;17.25;;
46653;SDS011;38960;51.074;17.004;2023-08-06T14:25:32;17.65;;;16.63;;
46653;SDS011;38960;51.074;17.004;2023-08-06T14:27:59;17.98;;;16.88;;
46653;SDS011;38960;51.074;17.004;2023-08-06T14:30:24;17.15;;;16.15;;
46653;SDS011;38960;51.074;17.004;2023-08-06T14:32:50;18.35;;;16.98;;
46653;SDS011;38960;51.074;17.004;2023-08-06T14:35:15;19.75;;;18.20;;
46653;SDS011;38960;51.074;17.004;2023-08-06T14:37:41;18.77;;;17.58;;
46653;SDS011;38960;51.074;17.004;2023-08-06T14:40:07;18.75;;;17.55;;
46653;SDS011;38960;51.074;17.004;2023-08-06T14:42:33;18.83;;;17.63;;
46653;SDS011;38960;51.074;17.004;2023-08-06T14:44:59;17.73;;;16.63;;
46653;SDS011;38960;51.074;17.004;2023-08-06T14:47:24;17.98;;;16.88;;
46653;SDS011;38960;51.074;17.004;2023-08-06T14:49:50;18.20;;;16.77;;
46653;SDS011;38960;51.074;17.004;2023-08-06T14:52:16;16.38;;;15.38;;
46653;SDS011;38960;51.074;17.004;2023-08-06T14:54:41;17.17;;;16.17;;
46653;SDS011;38960;51.074;17.004;2023-08-06T14:57:07;18.33;;;17.13;;
46653;SDS011;38960;51.074;17.004;2023-08-06T14:59:33;19.20;;;17.73;;
46653;SDS011;38960;51.074;17.004;2023-08-06T15:01:59;18.67;;;17.48;;
46653;SDS011;38960;51.074;17.004;2023-08-06T15:04:24;18.33;;;17.23;;
46653;SDS011;38960;51.074;17.004;2023-08-06T15:06:53;18.52;;;17.42;;
46653;SDS011;38960;51.074;17.004;2023-08-06T15:09:19;18.40;;;17.23;;
46653;SDS011;38960;51.074;17.004;2023-08-06T15:11:47;17.95;;;16.85;;
46653;SDS011;38960;51.074;17.004;2023-08-06T15:14:12;17.83;;;16.73;;
46653;SDS011;38960;51.074;17.004;2023-08-06T15:16:39;17.70;;;16.60;;
46653;SDS011;38960;51.074;17.004;2023-08-06T15:19:05;17.10;;;16.10;;
46653;SDS011;38960;51.074;17.004;2023-08-06T15:21:30;16.67;;;15.68;;
46653;SDS011;38960;51.074;17.004;2023-08-06T15:23:56;17.42;;;16.42;;
46653;SDS011;38960;51.074;17.004;2023-08-06T15:26:21;16.35;;;15.35;;
46653;SDS011;38960;51.074;17.004;2023-08-06T15:28:47;17.02;;;16.02;;
46653;SDS011;38960;51.074;17.004;2023-08-06T15:31:12;17.00;;;16.00;;
46653;SDS011;38960;51.074;17.004;2023-08-06T15:33:38;16.65;;;15.65;;
46653;SDS011;38960;51.074;17.004;2023-08-06T15:36:04;17.30;;;16.10;;
46653;SDS011;38960;51.074;17.004;2023-08-06T15:38:29;17.13;;;16.02;;
46653;SDS011;38960;51.074;17.004;2023-08-06T15:40:55;17.75;;;16.55;;
46653;SDS011;38960;51.074;17.004;2023-08-06T15:43:21;17.40;;;16.13;;
46653;SDS011;38960;51.074;17.004;2023-08-06T15:45:46;17.73;;;16.48;;
46653;SDS011;38960;51.074;17.004;2023-08-06T15:48:12;18.05;;;16.85;;
46653;SDS011;38960;51.074;17.004;2023-08-06T15:50:37;17.48;;;16.38;;
46653;SDS011;38960;51.074;17.004;2023-08-06T15:53:04;17.25;;;16.25;;
46653;SDS011;38960;51.074;17.004;2023-08-06T15:55:29;18.77;;;17.25;;
46653;SDS011;38960;51.074;17.004;2023-08-06T15:57:55;18.27;;;17.17;;
46653;SDS011;38960;51.074;17.004;2023-08-06T16:00:20;17.77;;;16.67;;
46653;SDS011;38960;51.074;17.004;2023-08-06T16:02:46;18.75;;;17.55;;
46653;SDS011;38960;51.074;17.004;2023-08-06T16:05:12;17.85;;;16.60;;
46653;SDS011;38960;51.074;17.004;2023-08-06T16:07:37;18.50;;;17.20;;
46653;SDS011;38960;51.074;17.004;2023-08-06T16:10:03;18.90;;;17.70;;
46653;SDS011;38960;51.074;17.004;2023-08-06T16:12:29;18.67;;;17.48;;
46653;SDS011;38960;51.074;17.004;2023-08-06T16:14:55;17.15;;;16.15;;
46653;SDS011;38960;51.074;17.004;2023-08-06T16:17:20;17.83;;;16.73;;
46653;SDS011;38960;51.074;17.004;2023-08-06T16:19:46;19.27;;;18.02;;
46653;SDS011;38960;51.074;17.004;2023-08-06T16:22:11;18.58;;;17.38;;
46653;SDS011;38960;51.074;17.004;2023-08-06T16:24:37;18.58;;;17.38;;
46653;SDS011;38960;51.074;17.004;2023-08-06T16:27:02;17.95;;;16.75;;
46653;SDS011;38960;51.074;17.004;2023-08-06T16:29:28;18.17;;;16.88;;
46653;SDS011;38960;51.074;17.004;2023-08-06T16:31:54;19.15;;;17.95;;
46653;SDS011;38960;51.074;17.004;2023-08-06T16:34:20;18.90;;;17.70;;
46653;SDS011;38960;51.074;17.004;2023-08-06T16:36:46;18.13;;;17.02;;
46653;SDS011;38960;51.074;17.004;2023-08-06T16:39:11;17.98;;;16.77;;
46653;SDS011;38960;51.074;17.004;2023-08-06T16:41:37;18.27;;;16.98;;
46653;SDS011;38960;51.074;17.004;2023-08-06T16:44:03;19.02;;;17.83;;
46653;SDS011;38960;51.074;17.004;2023-08-06T16:46:30;18.27;;;16.98;;
46653;SDS011;38960;51.074;17.004;2023-08-06T16:48:56;17.98;;;16.88;;
46653;SDS011;38960;51.074;17.004;2023-08-06T16:51:22;18.67;;;17.05;;
46653;SDS011;38960;51.074;17.004;2023-08-06T16:53:47;17.67;;;16.58;;
46653;SDS011;38960;51.074;17.004;2023-08-06T16:56:13;18.23;;;17.00;;
46653;SDS011;38960;51.074;17.004;2023-08-06T16:58:39;17.90;;;16.70;;
46653;SDS011;38960;51.074;17.004;2023-08-06T17:01:04;17.45;;;16.45;;
46653;SDS011;38960;51.074;17.004;2023-08-06T17:03:31;18.67;;;17.27;;
46653;SDS011;38960;51.074;17.004;2023-08-06T17:05:58;17.63;;;16.33;;
46653;SDS011;38960;51.074;17.004;2023-08-06T17:08:24;17.98;;;16.88;;
46653;SDS011;38960;51.074;17.004;2023-08-06T17:10:49;18.40;;;17.20;;
46653;SDS011;38960;51.074;17.004;2023-08-06T17:13:16;18.20;;;17.13;;
46653;SDS011;38960;51.074;17.004;2023-08-06T17:15:42;18.02;;;16.75;;
46653;SDS011;38960;51.074;17.004;2023-08-06T17:18:08;19.33;;;18.23;;
46653;SDS011;38960;51.074;17.004;2023-08-06T17:20:34;19.15;;;17.95;;
46653;SDS011;38960;51.074;17.004;2023-08-06T17:23:00;20.08;;;18.77;;
46653;SDS011;38960;51.074;17.004;2023-08-06T17:25:29;18.63;;;17.50;;
46653;SDS011;38960;51.074;17.004;2023-08-06T17:27:55;17.65;;;16.55;;
46653;SDS011;38960;51.074;17.004;2023-08-06T17:30:20;19.52;;;18.33;;
46653;SDS011;38960;51.074;17.004;2023-08-06T17:32:46;20.10;;;18.73;;
46653;SDS011;38960;51.074;17.004;2023-08-06T17:35:11;18.98;;;17.83;;
46653;SDS011;38960;51.074;17.004;2023-08-06T17:37:37;19.08;;;17.55;;
46653;SDS011;38960;51.074;17.004;2023-08-06T17:40:03;20.00;;;18.80;;
46653;SDS011;38960;51.074;17.004;2023-08-06T17:42:28;20.73;;;19.50;;
46653;SDS011;38960;51.074;17.004;2023-08-06T17:44:54;19.90;;;18.50;;
46653;SDS011;38960;51.074;17.004;2023-08-06T17:47:20;19.52;;;18.33;;
46653;SDS011;38960;51.074;17.004;2023-08-06T17:49:45;19.30;;;18.05;;
46653;SDS011;38960;51.074;17.004;2023-08-06T17:52:11;18.67;;;17.48;;
46653;SDS011;38960;51.074;17.004;2023-08-06T17:54:36;19.65;;;18.42;;
46653;SDS011;38960;51.074;17.004;2023-08-06T17:57:01;18.55;;;17.45;;
46653;SDS011;38960;51.074;17.004;2023-08-06T17:59:27;20.05;;;18.65;;
46653;SDS011;38960;51.074;17.004;2023-08-06T18:01:53;19.67;;;18.35;;
46653;SDS011;38960;51.074;17.004;2023-08-06T18:04:18;18.90;;;17.67;;
46653;SDS011;38960;51.074;17.004;2023-08-06T18:06:44;19.15;;;18.05;;
46653;SDS011;38960;51.074;17.004;2023-08-06T18:09:10;18.63;;;17.42;;
46653;SDS011;38960;51.074;17.004;2023-08-06T18:11:36;18.70;;;17.58;;
46653;SDS011;38960;51.074;17.004;2023-08-06T18:14:01;18.25;;;17.05;;
46653;SDS011;38960;51.074;17.004;2023-08-06T18:16:28;17.92;;;16.73;;
46653;SDS011;38960;51.074;17.004;2023-08-06T18:18:54;19.20;;;18.00;;
46653;SDS011;38960;51.074;17.004;2023-08-06T18:21:19;19.70;;;18.40;;
46653;SDS011;38960;51.074;17.004;2023-08-06T18:23:46;19.30;;;17.83;;
46653;SDS011;38960;51.074;17.004;2023-08-06T18:26:12;19.35;;;17.80;;
46653;SDS011;38960;51.074;17.004;2023-08-06T18:28:38;19.70;;;18.50;;
46653;SDS011;38960;51.074;17.004;2023-08-06T18:31:06;27.42;;;25.23;;
46653;SDS011;38960;51.074;17.004;2023-08-06T18:33:31;21.95;;;20.35;;
46653;SDS011;38960;51.074;17.004;2023-08-06T18:35:57;18.90;;;17.70;;
46653;SDS011;38960;51.074;17.004;2023-08-06T18:38:22;19.88;;;18.63;;
46653;SDS011;38960;51.074;17.004;2023-08-06T18:41:00;19.85;;;18.45;;
46653;SDS011;38960;51.074;17.004;2023-08-06T18:43:27;19.90;;;18.60;;
46653;SDS011;38960;51.074;17.004;2023-08-06T18:45:56;19.15;;;17.75;;
46653;SDS011;38960;51.074;17.004;2023-08-06T18:48:22;19.48;;;18.17;;
46653;SDS011;38960;51.074;17.004;2023-08-06T18:50:48;18.98;;;17.77;;
46653;SDS011;38960;51.074;17.004;2023-08-06T18:53:14;18.15;;;17.05;;
46653;SDS011;38960;51.074;17.004;2023-08-06T18:55:49;19.33;;;18.10;;
46653;SDS011;38960;51.074;17.004;2023-08-06T18:58:16;18.45;;;17.25;;
46653;SDS011;38960;51.074;17.004;2023-08-06T19:00:42;19.30;;;17.90;;
46653;SDS011;38960;51.074;17.004;2023-08-06T19:03:07;18.75;;;17.55;;
46653;SDS011;38960;51.074;17.004;2023-08-06T19:05:36;19.20;;;17.95;;
46653;SDS011;38960;51.074;17.004;2023-08-06T19:08:03;20.02;;;18.45;;
46653;SDS011;38960;51.074;17.004;2023-08-06T19:10:30;19.52;;;18.33;;
46653;SDS011;38960;51.074;17.004;2023-08-06T19:12:57;19.83;;;18.63;;
46653;SDS011;38960;51.074;17.004;2023-08-06T19:15:23;19.90;;;18.60;;
46653;SDS011;38960;51.074;17.004;2023-08-06T19:17:49;18.63;;;17.33;;
46653;SDS011;38960;51.074;17.004;2023-08-06T19:20:14;19.58;;;18.23;;
46653;SDS011;38960;51.074;17.004;2023-08-06T19:22:40;19.20;;;18.00;;
46653;SDS011;38960;51.074;17.004;2023-08-06T19:25:06;19.48;;;18.05;;
46653;SDS011;38960;51.074;17.004;2023-08-06T19:27:32;19.75;;;18.25;;
46653;SDS011;38960;51.074;17.004;2023-08-06T19:29:57;20.08;;;18.50;;
46653;SDS011;38960;51.074;17.004;2023-08-06T19:32:23;20.75;;;18.75;;
46653;SDS011;38960;51.074;17.004;2023-08-06T19:34:48;20.13;;;18.80;;
46653;SDS011;38960;51.074;17.004;2023-08-06T19:37:14;19.23;;;18.02;;
46653;SDS011;38960;51.074;17.004;2023-08-06T19:39:39;20.48;;;19.08;;
46653;SDS011;38960;51.074;17.004;2023-08-06T19:42:05;19.88;;;18.48;;
46653;SDS011;38960;51.074;17.004;2023-08-06T19:44:31;20.00;;;18.70;;
46653;SDS011;38960;51.074;17.004;2023-08-06T19:46:56;19.20;;;17.80;;
46653;SDS011;38960;51.074;17.004;2023-08-06T19:49:22;19.63;;;18.17;;
46653;SDS011;38960;51.074;17.004;2023-08-06T19:51:47;20.30;;;18.65;;
46653;SDS011;38960;51.074;17.004;2023-08-06T19:54:13;19.17;;;18.00;;
46653;SDS011;38960;51.074;17.004;2023-08-06T19:56:38;20.63;;;19.13;;
46653;SDS011;38960;51.074;17.004;2023-08-06T19:59:04;21.27;;;19.40;;
46653;SDS011;38960;51.074;17.004;2023-08-06T20:01:29;19.85;;;18.38;;
46653;SDS011;38960;51.074;17.004;2023-08-06T20:03:55;31.65;;;28.55;;
46653;SDS011;38960;51.074;17.004;2023-08-06T20:06:21;32.03;;;29.27;;
46653;SDS011;38960;51.074;17.004;2023-08-06T20:08:55;20.20;;;18.90;;
46653;SDS011;38960;51.074;17.004;2023-08-06T20:11:21;19.90;;;18.55;;
46653;SDS011;38960;51.074;17.004;2023-08-06T20:13:47;20.25;;;18.95;;
46653;SDS011;38960;51.074;17.004;2023-08-06T20:16:13;19.52;;;18.23;;
46653;SDS011;38960;51.074;17.004;2023-08-06T20:18:39;19.70;;;17.98;;
46653;SDS011;38960;51.074;17.004;2023-08-06T20:21:04;19.38;;;18.02;;
46653;SDS011;38960;51.074;17.004;2023-08-06T20:23:30;19.65;;;18.20;;
46653;SDS011;38960;51.074;17.004;2023-08-06T20:25:56;19.08;;;17.83;;
46653;SDS011;38960;51.074;17.004;2023-08-06T20:28:22;20.27;;;18.85;;
46653;SDS011;38960;51.074;17.004;2023-08-06T20:30:47;20.85;;;19.35;;
46653;SDS011;38960;51.074;17.004;2023-08-06T20:33:13;20.30;;;18.58;;
46653;SDS011;38960;51.074;17.004;2023-08-06T20:35:39;21.63;;;19.95;;
46653;SDS011;38960;51.074;17.004;2023-08-06T20:38:06;20.75;;;19.30;;
46653;SDS011;38960;51.074;17.004;2023-08-06T20:40:32;19.10;;;17.70;;
46653;SDS011;38960;51.074;17.004;2023-08-06T20:42:58;18.83;;;17.42;;
46653;SDS011;38960;51.074;17.004;2023-08-06T20:45:23;22.85;;;20.80;;
46653;SDS011;38960;51.074;17.004;2023-08-06T20:47:49;20.27;;;18.25;;
46653;SDS011;38960;51.074;17.004;2023-08-06T20:50:14;19.52;;;18.13;;
46653;SDS011;38960;51.074;17.004;2023-08-06T20:52:40;20.38;;;18.67;;
46653;SDS011;38960;51.074;17.004;2023-08-06T20:55:05;19.83;;;18.33;;
46653;SDS011;38960;51.074;17.004;2023-08-06T20:57:31;20.08;;;18.58;;
46653;SDS011;38960;51.074;17.004;2023-08-06T21:00:12;19.45;;;18.08;;
46653;SDS011;38960;51.074;17.004;2023-08-06T21:02:40;19.67;;;18.08;;
46653;SDS011;38960;51.074;17.004;2023-08-06T21:05:06;19.35;;;18.15;;
46653;SDS011;38960;51.074;17.004;2023-08-06T21:07:32;19.55;;;18.27;;
46653;SDS011;38960;51.074;17.004;2023-08-06T21:09:57;19.27;;;18.00;;
46653;SDS011;38960;51.074;17.004;2023-08-06T21:12:23;20.25;;;18.35;;
46653;SDS011;38960;51.074;17.004;2023-08-06T21:14:48;19.65;;;18.25;;
46653;SDS011;38960;51.074;17.004;2023-08-06T21:17:14;19.50;;;18.20;;
46653;SDS011;38960;51.074;17.004;2023-08-06T21:19:39;20.33;;;18.67;;
46653;SDS011;38960;51.074;17.004;2023-08-06T21:22:05;19.55;;;17.98;;
46653;SDS011;38960;51.074;17.004;2023-08-06T21:24:31;19.95;;;18.50;;
46653;SDS011;38960;51.074;17.004;2023-08-06T21:26:57;20.10;;;18.80;;
46653;SDS011;38960;51.074;17.004;2023-08-06T21:29:23;19.67;;;17.92;;
46653;SDS011;38960;51.074;17.004;2023-08-06T21:31:48;19.75;;;18.33;;
46653;SDS011;38960;51.074;17.004;2023-08-06T21:34:13;19.38;;;17.88;;
46653;SDS011;38960;51.074;17.004;2023-08-06T21:36:40;19.73;;;18.30;;
46653;SDS011;38960;51.074;17.004;2023-08-06T21:39:06;20.45;;;18.85;;
46653;SDS011;38960;51.074;17.004;2023-08-06T21:41:32;20.20;;;18.55;;
46653;SDS011;38960;51.074;17.004;2023-08-06T21:43:57;19.75;;;18.35;;
46653;SDS011;38960;51.074;17.004;2023-08-06T21:46:23;19.08;;;17.45;;
46653;SDS011;38960;51.074;17.004;2023-08-06T21:48:49;20.10;;;18.65;;
46653;SDS011;38960;51.074;17.004;2023-08-06T21:51:19;18.65;;;17.45;;
46653;SDS011;38960;51.074;17.004;2023-08-06T21:53:45;19.45;;;18.10;;
46653;SDS011;38960;51.074;17.004;2023-08-06T21:56:12;19.65;;;18.23;;
46653;SDS011;38960;51.074;17.004;2023-08-06T21:58:39;19.45;;;18.10;;
46653;SDS011;38960;51.074;17.004;2023-08-06T22:01:08;18.67;;;17.48;;
46653;SDS011;38960;51.074;17.004;2023-08-06T22:03:36;19.98;;;18.48;;
46653;SDS011;38960;51.074;17.004;2023-08-06T22:06:02;20.33;;;18.73;;
46653;SDS011;38960;51.074;17.004;2023-08-06T22:08:27;19.73;;;18.30;;
46653;SDS011;38960;51.074;17.004;2023-08-06T22:10:54;19.35;;;18.15;;
46653;SDS011;38960;51.074;17.004;2023-08-06T22:13:21;20.15;;;18.35;;
46653;SDS011;38960;51.074;17.004;2023-08-06T22:15:46;19.88;;;18.33;;
46653;SDS011;38960;51.074;17.004;2023-08-06T22:18:12;18.70;;;17.40;;
46653;SDS011;38960;51.074;17.004;2023-08-06T22:20:37;19.92;;;18.52;;
46653;SDS011;38960;51.074;17.004;2023-08-06T22:23:03;20.08;;;18.58;;
46653;SDS011;38960;51.074;17.004;2023-08-06T22:25:28;19.42;;;18.10;;
46653;SDS011;38960;51.074;17.004;2023-08-06T22:27:54;19.67;;;17.98;;
46653;SDS011;38960;51.074;17.004;2023-08-06T22:30:20;19.58;;;18.17;;
46653;SDS011;38960;51.074;17.004;2023-08-06T22:32:46;19.40;;;18.10;;
46653;SDS011;38960;51.074;17.004;2023-08-06T22:35:12;19.02;;;17.63;;
46653;SDS011;38960;51.074;17.004;2023-08-06T22:37:43;18.83;;;17.42;;
46653;SDS011;38960;51.074;17.004;2023-08-06T22:40:10;19.33;;;17.73;;
46653;SDS011;38960;51.074;17.004;2023-08-06T22:42:35;18.90;;;17.60;;
46653;SDS011;38960;51.074;17.004;2023-08-06T22:45:04;19.08;;;17.50;;
46653;SDS011;38960;51.074;17.004;2023-08-06T22:47:33;20.55;;;18.73;;
46653;SDS011;38960;51.074;17.004;2023-08-06T22:49:58;19.50;;;18.00;;
46653;SDS011;38960;51.074;17.004;2023-08-06T22:52:24;19.23;;;17.92;;
46653;SDS011;38960;51.074;17.004;2023-08-06T22:54:50;19.65;;;18.33;;
46653;SDS011;38960;51.074;17.004;2023-08-06T22:57:15;19.13;;;17.83;;
46653;SDS011;38960;51.074;17.004;2023-08-06T22:59:41;19.27;;;18.08;;
46653;SDS011;38960;51.074;17.004;2023-08-06T23:02:07;19.30;;;17.90;;
46653;SDS011;38960;51.074;17.004;2023-08-06T23:04:32;19.75;;;18.33;;
46653;SDS011;38960;51.074;17.004;2023-08-06T23:06:58;19.67;;;18.38;;
46653;SDS011;38960;51.074;17.004;2023-08-06T23:09:26;19.73;;;18.33;;
46653;SDS011;38960;51.074;17.004;2023-08-06T23:11:52;20.00;;;18.52;;
46653;SDS011;38960;51.074;17.004;2023-08-06T23:14:19;20.63;;;18.95;;
46653;SDS011;38960;51.074;17.004;2023-08-06T23:16:46;19.45;;;18.25;;
46653;SDS011;38960;51.074;17.004;2023-08-06T23:19:11;20.23;;;18.48;;
46653;SDS011;38960;51.074;17.004;2023-08-06T23:21:37;19.88;;;18.38;;
46653;SDS011;38960;51.074;17.004;2023-08-06T23:24:04;19.50;;;18.05;;
46653;SDS011;38960;51.074;17.004;2023-08-06T23:26:29;19.52;;;18.13;;
46653;SDS011;38960;51.074;17.004;2023-08-06T23:28:55;18.63;;;17.42;;
46653;SDS011;38960;51.074;17.004;2023-08-06T23:31:22;19.48;;;18.08;;
46653;SDS011;38960;51.074;17.004;2023-08-06T23:33:47;19.10;;;17.60;;
46653;SDS011;38960;51.074;17.004;2023-08-06T23:36:13;19.77;;;18.48;;
46653;SDS011;38960;51.074;17.004;2023-08-06T23:38:38;21.00;;;19.45;;
46653;SDS011;38960;51.074;17.004;2023-08-06T23:41:04;19.95;;;18.48;;
46653;SDS011;38960;51.074;17.004;2023-08-06T23:43:30;19.17;;;17.88;;
46653;SDS011;38960;51.074;17.004;2023-08-06T23:45:55;19.17;;;17.85;;
46653;SDS011;38960;51.074;17.004;2023-08-06T23:48:23;21.20;;;19.42;;
46653;SDS011;38960;51.074;17.004;2023-08-06T23:50:49;20.60;;;19.05;;
46653;SDS011;38960;51.074;17.004;2023-08-06T23:53:14;19.13;;;17.92;;
46653;SDS011;38960;51.074;17.004;2023-08-06T23:55:40;19.52;;;18.15;;
46653;SDS011;38960;51.074;17.004;2023-08-06T23:58:05;19.58;;;18.17;;
